createdAt,value
2019-02-22T00:00:47.426Z,10.90
2019-02-22T00:03:18.166Z,10.90
2019-02-22T00:05:48.918Z,10.90
2019-02-22T00:08:19.981Z,10.90
2019-02-22T00:10:50.975Z,10.90
2019-02-22T00:13:21.747Z,10.90
2019-02-22T00:15:53.400Z,10.90
2019-02-22T00:18:24.099Z,11.00
2019-02-22T00:20:54.954Z,10.90
2019-02-22T00:23:26.068Z,11.00
2019-02-22T00:25:56.812Z,10.90
2019-02-22T00:28:27.676Z,10.90
2019-02-22T00:30:58.786Z,10.90
2019-02-22T00:33:29.603Z,10.90
2019-02-22T00:36:00.436Z,10.90
2019-02-22T00:38:31.447Z,10.90
2019-02-22T00:41:02.337Z,10.90
2019-02-22T00:43:33.484Z,10.90
2019-02-22T00:46:04.348Z,11.00
2019-02-22T00:48:35.198Z,10.90
2019-02-22T00:51:06.342Z,10.90
2019-02-22T00:53:37.205Z,10.90
2019-02-22T00:56:08.036Z,10.90
2019-02-22T00:58:39.778Z,10.90
2019-02-22T01:01:10.634Z,10.90
2019-02-22T01:03:41.547Z,10.90
2019-02-22T01:06:12.281Z,10.90
2019-02-22T01:08:43.258Z,10.90
2019-02-22T01:11:14.496Z,10.80
2019-02-22T01:13:45.605Z,10.80
2019-02-22T01:16:16.522Z,10.80
2019-02-22T01:18:47.357Z,10.80
2019-02-22T01:21:18.114Z,10.80
2019-02-22T01:23:48.995Z,10.90
2019-02-22T01:26:19.745Z,10.80
2019-02-22T01:28:50.478Z,10.80
2019-02-22T01:31:21.266Z,10.90
2019-02-22T01:33:54.101Z,10.80
2019-02-22T01:36:24.525Z,10.80
2019-02-22T01:38:55.332Z,10.80
2019-02-22T01:41:26.460Z,10.80
2019-02-22T01:43:57.499Z,10.80
2019-02-22T01:46:28.613Z,10.80
2019-02-22T01:48:59.439Z,10.80
2019-02-22T01:51:30.211Z,10.80
2019-02-22T01:54:00.979Z,10.80
2019-02-22T01:56:32.071Z,10.90
2019-02-22T01:59:02.921Z,10.80
2019-02-22T02:01:34.023Z,10.80
2019-02-22T02:04:05.236Z,10.80
2019-02-22T02:06:36.063Z,10.70
2019-02-22T02:09:07.261Z,10.80
2019-02-22T02:11:38.683Z,10.70
2019-02-22T02:14:10.219Z,10.70
2019-02-22T02:16:41.245Z,10.60
2019-02-22T02:19:12.057Z,10.60
2019-02-22T02:21:43.241Z,10.60
2019-02-22T02:24:13.999Z,10.70
2019-02-22T02:26:44.732Z,10.70
2019-02-22T02:29:15.498Z,10.70
2019-02-22T02:31:46.330Z,10.70
2019-02-22T02:34:17.184Z,10.70
2019-02-22T02:36:48.987Z,10.70
2019-02-22T02:39:19.841Z,10.70
2019-02-22T02:41:50.960Z,10.70
2019-02-22T02:44:21.818Z,10.70
2019-02-22T02:46:52.863Z,10.70
2019-02-22T02:49:23.919Z,10.60
2019-02-22T02:51:54.728Z,10.60
2019-02-22T02:54:25.606Z,10.70
2019-02-22T02:56:56.484Z,10.70
2019-02-22T02:59:27.329Z,10.70
2019-02-22T03:01:59.038Z,10.70
2019-02-22T03:04:30.039Z,10.70
2019-02-22T03:07:06.544Z,10.70
2019-02-22T03:09:37.776Z,10.70
2019-02-22T03:12:08.518Z,10.70
2019-02-22T03:14:39.763Z,10.80
2019-02-22T03:17:10.888Z,10.80
2019-02-22T03:19:41.950Z,10.80
2019-02-22T03:22:12.791Z,10.80
2019-02-22T03:24:43.828Z,10.80
2019-02-22T03:27:14.910Z,10.70
2019-02-22T03:29:45.694Z,10.70
2019-02-22T03:32:16.549Z,10.70
2019-02-22T03:34:47.498Z,10.70
2019-02-22T03:37:18.626Z,10.70
2019-02-22T03:39:49.791Z,10.70
2019-02-22T03:42:32.671Z,10.70
2019-02-22T03:45:04.705Z,10.70
2019-02-22T03:47:35.591Z,10.70
2019-02-22T03:50:06.642Z,10.70
2019-02-22T03:52:41.676Z,10.70
2019-02-22T03:55:12.772Z,10.70
2019-02-22T03:57:43.782Z,10.80
2019-02-22T04:00:15.192Z,10.70
2019-02-22T04:02:46.257Z,10.70
2019-02-22T04:05:17.682Z,10.70
2019-02-22T04:07:48.429Z,10.80
2019-02-22T04:10:19.606Z,10.70
2019-02-22T04:12:50.362Z,10.70
2019-02-22T04:15:21.230Z,10.70
2019-02-22T04:17:52.005Z,10.80
2019-02-22T04:20:23.054Z,10.70
2019-02-22T04:22:53.817Z,10.70
2019-02-22T04:25:24.579Z,10.70
2019-02-22T04:27:55.333Z,10.70
2019-02-22T04:30:26.104Z,10.80
2019-02-22T04:32:56.859Z,10.80
2019-02-22T04:35:27.638Z,10.70
2019-02-22T04:37:58.414Z,10.70
2019-02-22T04:40:29.479Z,10.70
2019-02-22T04:43:00.238Z,10.70
2019-02-22T04:45:31.074Z,10.70
2019-02-22T04:48:01.909Z,10.70
2019-02-22T04:50:32.736Z,10.70
2019-02-22T04:53:03.471Z,10.70
2019-02-22T04:55:34.517Z,10.70
2019-02-22T04:58:05.567Z,10.70
2019-02-22T05:00:36.619Z,10.70
2019-02-22T05:03:07.654Z,10.70
2019-02-22T05:05:38.428Z,10.70
2019-02-22T05:08:09.232Z,10.70
2019-02-22T05:10:40.060Z,10.60
2019-02-22T05:13:11.667Z,10.60
2019-02-22T05:15:42.449Z,10.60
2019-02-22T05:18:13.201Z,10.60
2019-02-22T05:20:44.275Z,10.60
2019-02-22T05:23:15.035Z,10.60
2019-02-22T05:25:46.201Z,10.60
2019-02-22T05:28:17.315Z,10.60
2019-02-22T05:30:48.112Z,10.60
2019-02-22T05:33:19.114Z,10.60
2019-02-22T05:35:50.189Z,10.60
2019-02-22T05:38:20.932Z,10.60
2019-02-22T05:40:52.013Z,10.60
2019-02-22T05:43:22.872Z,10.70
2019-02-22T05:45:54.010Z,10.70
2019-02-22T05:48:25.598Z,10.70
2019-02-22T05:50:57.037Z,10.70
2019-02-22T05:53:28.139Z,10.70
2019-02-22T05:55:58.905Z,10.70
2019-02-22T05:58:29.742Z,10.70
2019-02-22T06:01:00.834Z,10.60
2019-02-22T06:03:31.601Z,10.60
2019-02-22T06:06:02.477Z,10.60
2019-02-22T06:08:33.243Z,10.60
2019-02-22T06:11:04.004Z,10.60
2019-02-22T06:13:34.762Z,10.70
2019-02-22T06:16:05.606Z,10.70
2019-02-22T06:18:36.439Z,10.70
2019-02-22T06:21:07.280Z,10.70
2019-02-22T06:23:38.027Z,10.70
2019-02-22T06:26:09.315Z,10.70
2019-02-22T06:28:40.502Z,10.70
2019-02-22T06:31:11.321Z,10.70
2019-02-22T06:33:42.161Z,10.70
2019-02-22T06:36:13.043Z,10.70
2019-02-22T06:38:46.618Z,10.70
2019-02-22T06:41:17.016Z,10.70
2019-02-22T06:43:48.026Z,10.80
2019-02-22T06:46:19.649Z,10.70
2019-02-22T06:48:50.430Z,10.80
2019-02-22T06:51:21.243Z,10.70
2019-02-22T06:53:52.579Z,10.70
2019-02-22T06:56:24.355Z,10.80
2019-02-22T06:58:55.241Z,10.70
2019-02-22T07:01:27.127Z,10.80
2019-02-22T07:03:57.879Z,10.80
2019-02-22T07:06:28.656Z,10.80
2019-02-22T07:09:18.874Z,10.80
2019-02-22T07:12:02.731Z,10.80
2019-02-22T07:14:33.479Z,10.80
2019-02-22T07:17:04.374Z,10.80
2019-02-22T07:19:35.462Z,10.90
2019-02-22T07:22:06.322Z,10.90
2019-02-22T07:24:37.321Z,10.90
2019-02-22T07:27:08.886Z,10.90
2019-02-22T07:29:41.719Z,10.90
2019-02-22T07:32:12.678Z,10.90
2019-02-22T07:34:43.454Z,10.90
2019-02-22T07:37:14.437Z,10.90
2019-02-22T07:39:45.696Z,10.80
2019-02-22T07:42:19.326Z,10.80
2019-02-22T07:44:57.936Z,10.80
2019-02-22T07:47:29.619Z,10.80
2019-02-22T07:50:00.475Z,10.80
2019-02-22T07:52:31.277Z,10.80
2019-02-22T07:55:02.089Z,10.80
2019-02-22T07:57:32.836Z,10.80
2019-02-22T08:00:04.501Z,10.80
2019-02-22T08:02:35.659Z,10.80
2019-02-22T08:05:09.045Z,10.80
2019-02-22T08:07:41.651Z,10.90
2019-02-22T08:10:12.442Z,11.00
2019-02-22T08:12:43.290Z,11.00
2019-02-22T08:15:14.509Z,11.00
2019-02-22T08:17:45.359Z,11.00
2019-02-22T08:20:16.184Z,11.00
2019-02-22T08:22:46.895Z,11.10
2019-02-22T08:25:17.939Z,11.10
2019-02-22T08:27:53.920Z,11.10
2019-02-22T08:30:21.473Z,11.10
2019-02-22T08:32:52.245Z,11.10
2019-02-22T08:35:23.331Z,11.00
2019-02-22T08:37:54.371Z,11.00
2019-02-22T08:40:25.695Z,11.10
2019-02-22T08:42:56.534Z,11.10
2019-02-22T08:45:28.299Z,11.20
2019-02-22T08:48:00.007Z,11.30
2019-02-22T08:50:31.206Z,11.30
2019-02-22T08:53:01.955Z,11.20
2019-02-22T08:55:32.799Z,11.30
2019-02-22T08:58:03.687Z,11.30
2019-02-22T09:00:34.903Z,11.50
2019-02-22T09:03:05.632Z,11.50
2019-02-22T09:05:37.349Z,11.50
2019-02-22T09:08:09.430Z,11.40
2019-02-22T09:10:40.176Z,11.30
2019-02-22T09:13:11.113Z,11.30
2019-02-22T09:15:41.922Z,11.30
2019-02-22T09:18:13.416Z,11.40
2019-02-22T09:20:44.184Z,11.40
2019-02-22T09:23:15.979Z,11.40
2019-02-22T09:25:47.057Z,11.40
2019-02-22T09:28:18.502Z,11.50
2019-02-22T09:30:49.393Z,11.70
2019-02-22T09:33:20.189Z,11.90
2019-02-22T09:35:50.943Z,12.00
2019-02-22T09:38:21.757Z,12.30
2019-02-22T09:40:53.871Z,12.40
2019-02-22T09:43:24.611Z,12.80
2019-02-22T09:45:55.688Z,13.00
2019-02-22T09:48:26.420Z,13.10
2019-02-22T09:50:57.239Z,13.20
2019-02-22T09:53:28.081Z,13.30
2019-02-22T09:55:58.918Z,13.30
2019-02-22T09:58:29.731Z,13.30
2019-02-22T10:01:01.108Z,13.20
2019-02-22T10:03:32.171Z,13.30
2019-02-22T10:06:03.210Z,13.20
2019-02-22T10:08:34.728Z,13.20
2019-02-22T10:11:05.498Z,13.10
2019-02-22T10:13:36.609Z,13.10
2019-02-22T10:16:07.364Z,13.20
2019-02-22T10:18:38.115Z,13.20
2019-02-22T10:21:09.222Z,13.20
2019-02-22T10:23:39.950Z,13.20
2019-02-22T10:26:10.970Z,13.20
2019-02-22T10:28:41.690Z,13.40
2019-02-22T10:31:12.761Z,13.50
2019-02-22T10:33:43.888Z,13.80
2019-02-22T10:36:14.636Z,14.40
2019-02-22T10:38:46.431Z,14.70
2019-02-22T10:41:17.273Z,14.80
2019-02-22T10:43:48.073Z,14.70
2019-02-22T10:46:18.880Z,14.60
2019-02-22T10:48:49.647Z,14.30
2019-02-22T10:51:20.723Z,14.40
2019-02-22T10:53:51.465Z,14.90
2019-02-22T10:56:22.533Z,16.10
2019-02-22T10:58:53.291Z,17.50
2019-02-22T11:01:24.554Z,18.60
2019-02-22T11:03:55.292Z,19.00
2019-02-22T11:06:26.332Z,19.00
2019-02-22T11:08:57.076Z,18.90
2019-02-22T11:11:27.799Z,18.50
2019-02-22T11:13:58.532Z,18.40
2019-02-22T11:16:29.274Z,17.90
2019-02-22T11:19:00.006Z,17.80
2019-02-22T11:21:31.094Z,17.60
2019-02-22T11:24:02.131Z,17.50
2019-02-22T11:26:32.849Z,17.30
2019-02-22T11:29:03.943Z,17.00
2019-02-22T11:31:34.987Z,17.30
2019-02-22T11:34:05.729Z,17.70
2019-02-22T11:36:37.048Z,18.10
2019-02-22T11:39:07.886Z,18.50
2019-02-22T11:41:39.006Z,18.70
2019-02-22T11:44:10.103Z,18.50
2019-02-22T11:46:41.105Z,17.80
2019-02-22T11:49:11.830Z,17.30
2019-02-22T11:51:42.538Z,16.70
2019-02-22T11:54:13.275Z,16.10
2019-02-22T11:56:44.162Z,15.90
2019-02-22T11:59:15.362Z,15.70
2019-02-22T12:01:46.229Z,15.90
2019-02-22T12:04:18.033Z,15.90
2019-02-22T12:06:48.961Z,15.80
2019-02-22T12:09:19.744Z,15.90
2019-02-22T12:11:50.496Z,16.00
2019-02-22T12:14:21.385Z,16.00
2019-02-22T12:16:52.311Z,15.90
2019-02-22T12:19:23.070Z,15.90
2019-02-22T12:21:54.250Z,15.80
2019-02-22T12:24:25.020Z,15.60
2019-02-22T12:26:55.984Z,15.30
2019-02-22T12:29:27.026Z,15.10
2019-02-22T12:31:58.313Z,15.00
2019-02-22T12:34:29.085Z,15.00
2019-02-22T12:36:59.824Z,14.90
2019-02-22T12:39:30.701Z,14.80
2019-02-22T12:42:01.449Z,14.90
2019-02-22T12:44:32.238Z,15.20
2019-02-22T12:47:03.567Z,16.90
2019-02-22T12:49:34.599Z,18.70
2019-02-22T12:52:05.568Z,19.70
2019-02-22T12:54:36.612Z,19.50
2019-02-22T12:57:08.023Z,18.80
2019-02-22T12:59:39.102Z,17.80
2019-02-22T13:02:10.848Z,16.90
2019-02-22T13:04:41.563Z,16.30
2019-02-22T13:07:12.323Z,15.80
2019-02-22T13:09:43.034Z,15.50
2019-02-22T13:12:16.647Z,15.70
2019-02-22T13:14:47.077Z,15.80
2019-02-22T13:17:18.309Z,15.80
2019-02-22T13:19:49.652Z,15.90
2019-02-22T13:22:20.952Z,15.60
2019-02-22T13:24:52.055Z,15.50
2019-02-22T13:27:23.790Z,15.60
2019-02-22T13:29:54.504Z,15.60
2019-02-22T13:32:25.807Z,15.50
2019-02-22T13:34:57.613Z,15.40
2019-02-22T13:37:29.513Z,15.30
2019-02-22T13:40:00.514Z,15.50
2019-02-22T13:42:31.485Z,15.50
2019-02-22T13:45:02.728Z,15.30
2019-02-22T13:47:34.445Z,15.20
2019-02-22T13:50:07.181Z,15.10
2019-02-22T13:52:38.325Z,15.10
2019-02-22T13:55:09.856Z,15.10
2019-02-22T13:57:41.015Z,15.00
2019-02-22T14:00:16.476Z,15.10
2019-02-22T14:02:47.277Z,15.20
2019-02-22T14:05:18.061Z,15.20
2019-02-22T14:07:55.661Z,15.20
2019-02-22T14:10:29.761Z,15.30
2019-02-22T14:13:02.169Z,15.40
2019-02-22T14:15:38.114Z,15.40
2019-02-22T14:18:05.958Z,15.20
2019-02-22T14:20:36.876Z,15.00
2019-02-22T14:23:08.108Z,14.90
2019-02-22T14:25:38.863Z,14.70
2019-02-22T14:28:12.118Z,14.50
2019-02-22T14:30:42.977Z,14.40
2019-02-22T14:33:14.033Z,14.30
2019-02-22T14:35:44.766Z,14.30
2019-02-22T14:38:15.794Z,14.20
2019-02-22T14:40:46.532Z,14.30
2019-02-22T14:43:17.275Z,14.30
2019-02-22T14:45:52.141Z,14.30
2019-02-22T14:48:20.536Z,14.30
2019-02-22T14:50:52.854Z,14.30
2019-02-22T14:53:24.795Z,14.20
2019-02-22T14:55:55.528Z,14.10
2019-02-22T14:58:27.697Z,14.00
2019-02-22T15:00:58.533Z,13.80
2019-02-22T15:03:29.747Z,13.90
2019-02-22T15:06:01.491Z,13.80
2019-02-22T15:08:32.406Z,14.10
2019-02-22T15:11:04.674Z,14.30
2019-02-22T15:13:35.421Z,14.40
2019-02-22T15:16:24.987Z,14.50
2019-02-22T15:18:55.708Z,14.60
2019-02-22T15:21:26.464Z,14.70
2019-02-22T15:23:57.497Z,14.60
2019-02-22T15:26:28.294Z,14.50
2019-02-22T15:28:59.058Z,14.50
2019-02-22T15:31:36.188Z,14.40
2019-02-22T15:34:02.626Z,15.80
2019-02-22T15:36:33.687Z,17.20
2019-02-22T15:39:05.510Z,18.30
2019-02-22T15:41:38.019Z,18.20
2019-02-22T15:44:08.768Z,18.00
2019-02-22T15:46:39.640Z,17.30
2019-02-22T15:49:10.372Z,17.20
2019-02-22T15:51:42.198Z,17.20
2019-02-22T15:54:13.555Z,17.60
2019-02-22T15:56:44.345Z,17.70
2019-02-22T15:59:15.097Z,17.80
2019-02-22T16:01:54.955Z,17.30
2019-02-22T16:04:24.847Z,17.30
2019-02-22T16:06:55.729Z,18.00
2019-02-22T16:09:27.874Z,18.80
2019-02-22T16:11:59.016Z,19.40
2019-02-22T16:14:30.601Z,19.50
2019-02-22T16:17:01.384Z,19.70
2019-02-22T16:19:32.559Z,20.00
2019-02-22T16:22:03.305Z,19.90
2019-02-22T16:24:34.144Z,19.30
2019-02-22T16:27:06.295Z,18.50
2019-02-22T16:29:37.432Z,17.50
2019-02-22T16:32:08.285Z,17.00
2019-02-22T16:34:43.421Z,17.20
2019-02-22T16:37:11.524Z,17.10
2019-02-22T16:39:43.580Z,16.50
2019-02-22T16:42:14.414Z,16.70
2019-02-22T16:44:45.174Z,16.80
2019-02-22T16:47:15.979Z,16.60
2019-02-22T16:49:47.061Z,16.10
2019-02-22T16:52:17.957Z,16.00
2019-02-22T16:54:49.145Z,16.30
2019-02-22T16:57:20.056Z,16.00
2019-02-22T16:59:50.882Z,15.80
2019-02-22T17:02:21.938Z,15.80
2019-02-22T17:04:53.660Z,15.90
2019-02-22T17:07:27.766Z,15.90
2019-02-22T17:09:58.914Z,15.80
2019-02-22T17:12:29.661Z,15.30
2019-02-22T17:15:00.402Z,15.30
2019-02-22T17:17:31.142Z,15.20
2019-02-22T17:20:01.879Z,15.30
2019-02-22T17:22:32.810Z,15.40
2019-02-22T17:25:04.025Z,15.10
2019-02-22T17:27:34.906Z,14.50
2019-02-22T17:30:06.159Z,14.00
2019-02-22T17:32:38.013Z,13.60
2019-02-22T17:35:09.033Z,13.30
2019-02-22T17:37:39.833Z,13.00
2019-02-22T17:40:12.863Z,12.80
2019-02-22T17:42:43.898Z,12.60
2019-02-22T17:45:14.990Z,12.50
2019-02-22T17:47:45.732Z,12.40
2019-02-22T17:50:16.902Z,12.30
2019-02-22T17:52:48.064Z,12.20
2019-02-22T17:55:18.931Z,12.10
2019-02-22T17:57:49.680Z,12.00
2019-02-22T18:00:21.162Z,11.90
2019-02-22T18:02:51.933Z,11.80
2019-02-22T18:05:22.711Z,11.80
2019-02-22T18:07:53.493Z,11.70
2019-02-22T18:10:24.558Z,11.70
2019-02-22T18:12:55.401Z,11.60
2019-02-22T18:15:26.398Z,11.60
2019-02-22T18:17:57.170Z,11.40
2019-02-22T18:20:28.100Z,11.40
2019-02-22T18:22:59.203Z,11.40
2019-02-22T18:25:29.955Z,11.40
2019-02-22T18:28:00.822Z,11.30
2019-02-22T18:30:34.593Z,11.30
2019-02-22T18:33:05.482Z,11.10
2019-02-22T18:35:36.299Z,11.10
2019-02-22T18:38:07.235Z,11.10
2019-02-22T18:40:38.056Z,11.00
2019-02-22T18:43:09.074Z,11.00
2019-02-22T18:45:39.914Z,10.80
2019-02-22T18:48:10.678Z,10.80
2019-02-22T18:50:42.647Z,10.80
2019-02-22T18:53:13.590Z,10.80
2019-02-22T18:55:50.134Z,10.70
2019-02-22T18:58:17.760Z,10.60
2019-02-22T19:00:48.856Z,10.60
2019-02-22T19:03:19.652Z,10.50
2019-02-22T19:05:51.500Z,10.50
2019-02-22T19:08:32.063Z,10.40
2019-02-22T19:10:55.161Z,10.30
2019-02-22T19:13:26.199Z,10.20
2019-02-22T19:15:57.055Z,10.20
2019-02-22T19:18:28.398Z,10.10
2019-02-22T19:21:02.917Z,10.10
2019-02-22T19:23:33.739Z,10.10
2019-02-22T19:26:04.741Z,10.00
2019-02-22T19:28:35.588Z,10.00
2019-02-22T19:31:06.342Z,10.00
2019-02-22T19:33:37.223Z,10.00
2019-02-22T19:36:08.115Z,10.00
2019-02-22T19:38:38.962Z,9.90
2019-02-22T19:41:09.841Z,9.80
2019-02-22T19:43:41.174Z,9.80
2019-02-22T19:46:11.985Z,9.80
2019-02-22T19:48:43.026Z,9.70
2019-02-22T19:51:14.213Z,9.70
2019-02-22T19:53:45.033Z,9.70
2019-02-22T19:56:15.851Z,9.60
2019-02-22T19:58:47.101Z,9.60
2019-02-22T20:01:18.085Z,9.60
2019-02-22T20:03:49.057Z,9.50
2019-02-22T20:06:19.846Z,9.50
2019-02-22T20:08:50.671Z,9.40
2019-02-22T20:11:21.470Z,9.40
2019-02-22T20:13:52.461Z,9.40
2019-02-22T20:16:23.291Z,11.30
2019-02-22T20:18:54.588Z,13.60
2019-02-22T20:21:25.493Z,15.30
2019-02-22T20:23:56.707Z,16.30
2019-02-22T20:26:27.540Z,16.30
2019-02-22T20:28:58.411Z,15.20
2019-02-22T20:31:29.405Z,14.00
2019-02-22T20:34:00.257Z,12.90
2019-02-22T20:36:31.454Z,12.10
2019-02-22T20:39:04.506Z,11.40
2019-02-22T20:41:35.958Z,10.90
2019-02-22T20:44:06.877Z,10.50
2019-02-22T20:46:38.113Z,10.20
2019-02-22T20:49:09.028Z,10.00
2019-02-22T20:51:39.798Z,9.70
2019-02-22T20:54:10.588Z,9.60
2019-02-22T20:56:42.422Z,9.40
2019-02-22T20:59:13.240Z,9.30
2019-02-22T21:01:44.083Z,9.10
2019-02-22T21:04:14.910Z,9.00
2019-02-22T21:06:45.788Z,8.90
2019-02-22T21:09:16.607Z,8.80
2019-02-22T21:11:47.530Z,8.80
2019-02-22T21:14:18.362Z,8.70
2019-02-22T21:16:49.213Z,8.70
2019-02-22T21:19:20.109Z,8.70
2019-02-22T21:21:50.868Z,8.70
2019-02-22T21:24:21.915Z,8.60
2019-02-22T21:26:53.116Z,8.60
2019-02-22T21:29:23.950Z,8.50
2019-02-22T21:31:55.142Z,8.50
2019-02-22T21:34:26.179Z,8.40
2019-02-22T21:36:58.098Z,8.50
2019-02-22T21:39:28.906Z,8.50
2019-02-22T21:41:59.799Z,8.40
2019-02-22T21:44:30.634Z,8.50
2019-02-22T21:47:01.443Z,8.50
2019-02-22T21:49:33.411Z,8.50
2019-02-22T21:52:04.175Z,8.50
2019-02-22T21:54:34.928Z,8.50
2019-02-22T21:57:05.820Z,8.40
2019-02-22T21:59:36.578Z,8.40
2019-02-22T22:02:07.408Z,8.40
2019-02-22T22:04:38.162Z,8.40
2019-02-22T22:07:09.623Z,8.40
2019-02-22T22:09:40.633Z,8.40
2019-02-22T22:12:11.705Z,8.30
2019-02-22T22:14:42.539Z,8.30
2019-02-22T22:17:13.385Z,8.30
2019-02-22T22:19:44.132Z,8.20
2019-02-22T22:22:15.262Z,8.20
2019-02-22T22:24:47.303Z,8.10
2019-02-22T22:27:18.186Z,8.10
2019-02-22T22:29:48.969Z,8.10
2019-02-22T22:32:19.769Z,8.10
2019-02-22T22:34:50.555Z,8.10
2019-02-22T22:37:21.372Z,8.10
2019-02-22T22:39:52.247Z,8.00
2019-02-22T22:42:23.280Z,8.00
2019-02-22T22:44:54.121Z,8.00
2019-02-22T22:47:25.393Z,7.90
2019-02-22T22:49:56.398Z,8.00
2019-02-22T22:52:27.525Z,7.90
2019-02-22T22:55:00.278Z,7.90
2019-02-22T22:57:31.271Z,8.00
2019-02-22T23:00:02.267Z,7.90
2019-02-22T23:02:55.638Z,7.90
2019-02-22T23:05:26.725Z,7.90
2019-02-22T23:07:57.502Z,7.90
2019-02-22T23:10:28.349Z,7.90
2019-02-22T23:12:59.217Z,7.90
2019-02-22T23:15:31.350Z,7.90
2019-02-22T23:18:02.466Z,7.90
2019-02-22T23:20:34.540Z,7.90
2019-02-22T23:23:05.750Z,7.80
2019-02-22T23:25:36.514Z,7.80
2019-02-22T23:28:07.263Z,7.80
2019-02-22T23:30:38.161Z,7.80
2019-02-22T23:33:08.904Z,7.90
2019-02-22T23:35:39.838Z,7.90
2019-02-22T23:38:10.966Z,7.90
2019-02-22T23:40:42.016Z,7.80
2019-02-22T23:43:13.687Z,7.80
2019-02-22T23:45:44.702Z,7.80
2019-02-22T23:48:15.483Z,7.90
2019-02-22T23:50:46.259Z,7.80
2019-02-22T23:53:17.076Z,7.80
2019-02-22T23:55:48.160Z,7.80
2019-02-22T23:58:19.238Z,7.70
